Current Weather

South Texas Rgnl at Hondo

Hondo, Texas (KHDO)

Report from: Saturday, February 4, 2023 9:51 PM CST
Current time: Saturday, February 4, 2023 10:32 PM CST

Nearby weather
Weather history
Weather forecast

Temperature6.7°C (44.1°F)
Wind chill3.9°C (39.0°F)
Dew point5.0°C (41.0°F)
Winds 8 kts (4.1 m/s, 9.2 mph) North-Northwest (340°)
Visibility10 mi. (16.1 km)
Clouds Sky clear
Altimeter30.26 in.Hg (1025 mB)
Relative humidity89 %
Density altitude-1,261 ft. (-384 m)
Sea-level pressure102.4 kPa (1024 mB, 30.25 in.Hg)
Remarks Fully automated report
System requires maintenance
Automated weather observing station with precipitation discriminator
Flight conditions Visual Meteorological Conditions
Raw dataKHDO 050351Z AUTO 34008KT 10SM CLR 07/05 A3026 RMK AO2 SLP243 T00670050 $
An unhandled exception has occurred. See browser dev tools for details. Reload 🗙